Latest Weather Observations for Thredbo Top Station

IDN60801

Issued at 6:22 am EDT Wednesday 13 November 2019 (issued every 10 minutes, with the page automatically refreshed every 10 minutes)

About weather observations | Map of weather stations | Latest weather observations for NSW | Other Formats
Station Details ID: 071032 Name: THREDBO AWS Lat: -36.49 Lon: 148.29 Height: 1957.0 m
Data from the previous 72 hours. | See also: Recent months at Thredbo Top Station
Date/Time
EDT
Temp
°C
App
Temp
°C
Dew
Point
°C
Rel
Hum
%
Delta-T
°C
Wind Press
QNH
hPa
Press
MSL
hPa
Rain since
9am
mm
Dir  Spd
km/h
Gust
km/h
Spd
kts
Gust
kts
13/06:00am -4.9 -16.4 -6.1 91 0.2 W 46 67 25 36 - - 0.2
13/05:36am -5.2 -16.0 -5.6 97 -0.1 W 43 61 23 33 - - 0.2
13/05:30am -5.2 -16.0 -5.6 97 -0.1 W 43 56 23 30 - - 0.2
13/05:00am -5.0 -14.7 -5.4 97 -0.1 W 37 54 20 29 - - 0.2
13/04:30am -4.8 -14.1 -5.2 97 -0.1 W 35 52 19 28 - - 0.2
13/04:00am -4.6 -14.6 -5.0 97 -0.1 WSW 39 52 21 28 - - 0.2
13/03:30am -4.2 -12.8 -4.6 97 0.0 W 32 46 17 25 - - 0.2
13/03:00am -3.7 -11.2 -4.2 96 0.0 W 26 41 14 22 - - 0.2
13/02:30am -3.4 -13.4 -4.7 91 0.3 W 39 59 21 32 - - 0.2
13/02:01am -2.9 -12.6 -5.5 82 0.8 W 37 56 20 30 - - 0.2
13/02:00am -2.8 -12.9 -5.9 79 0.9 W 39 56 21 30 - - 0.2
13/01:32am -2.5 -10.7 -3.9 90 0.4 W 30 48 16 26 - - 0.2
13/01:30am -2.5 -11.1 -4.1 89 0.5 W 32 48 17 26 - - 0.2
13/01:00am -2.2 -11.7 -3.6 90 0.4 W 37 56 20 30 - - 0.2
13/12:30am -1.9 -11.8 -4.1 85 0.7 W 39 57 21 31 - - 0.2
13/12:03am -1.7 -10.2 -3.3 89 0.5 W 32 50 17 27 - - 0.2
13/12:00am -1.6 -10.3 -3.3 88 0.6 W 33 46 18 25 - - 0.2
 
Date/Time
EDT
Temp
°C
App
Temp
°C
Dew
Point
°C
Rel
Hum
%
Delta-T
°C
Wind Press
QNH
hPa
Press
MSL
hPa
Rain since
9am
mm
Dir  Spd
km/h
Gust
km/h
Spd
kts
Gust
kts
12/11:30pm -1.2 -9.3 -3.1 87 0.7 W 30 48 16 26 - - 0.2
12/11:00pm -0.8 -9.3 -3.0 85 0.8 W 32 50 17 27 - - 0.2
12/10:59pm -0.8 -9.3 -3.0 85 0.8 W 32 50 17 27 - - 0.2
12/10:30pm -0.4 -8.9 -3.4 80 1.1 W 32 48 17 26 - - 0.2
12/10:05pm 0.2 -8.2 -2.5 82 1.1 W 32 52 17 28 - - 0.2
12/10:00pm 0.3 -6.9 -2.4 82 1.1 W 26 44 14 24 - - 0.2
12/09:30pm 0.5 -7.2 -2.9 78 1.3 W 28 39 15 21 - - 0.0
12/09:18pm 0.5 -7.7 -3.6 74 1.6 W 30 48 16 26 - - 0.0
12/09:00pm 0.6 -8.6 -4.2 70 1.8 W 35 52 19 28 - - 0.0
12/08:55pm 0.8 -7.0 -4.0 70 1.9 W 28 46 15 25 - - 0.0
12/08:30pm 1.0 -7.2 -3.7 71 1.8 W 30 41 16 22 - - 0.0
12/08:00pm 1.4 -6.3 -3.1 72 1.8 W 28 46 15 25 - - 0.0
12/07:30pm 2.2 -6.3 -3.7 65 2.4 W 32 50 17 27 - - 0.0
12/07:00pm 3.4 -4.8 -1.2 72 1.9 W 32 50 17 27 - - 0.0
12/06:35pm 3.4 -5.3 -0.8 74 1.8 W 35 54 19 29 - - 0.0
12/06:30pm 3.4 -6.1 -0.6 75 1.7 W 39 52 21 28 - - 0.0
12/06:05pm 3.9 -6.4 -0.7 72 1.9 W 43 61 23 33 - - 0.0
12/06:00pm 3.9 -7.0 -0.9 71 2.0 W 46 61 25 33 - - 0.0
12/05:30pm 4.8 -5.2 -1.8 62 2.7 W 41 59 22 32 - - 0.0
12/05:09pm 5.8 -4.6 -1.8 58 3.2 W 43 61 23 33 - - 0.0
12/05:00pm 5.7 -6.1 -2.4 56 3.3 W 50 61 27 33 - - 0.0
12/04:30pm 7.5 -3.1 0.5 61 3.1 W 46 63 25 34 - - 0.0
12/04:06pm 7.7 -2.4 1.3 64 2.9 W 44 63 24 34 - - 0.0
12/04:00pm 8.1 -2.7 1.9 65 2.9 W 48 63 26 34 - - 0.0
12/03:30pm 7.8 -2.8 2.9 71 2.3 W 48 67 26 36 - - 0.0
12/03:00pm 8.1 -2.4 1.7 64 3.0 W 46 69 25 37 - - 0.0
12/02:30pm 8.8 -2.8 -0.5 52 4.1 W 50 72 27 39 - - 0.0
12/02:00pm 9.3 -2.4 1.0 56 3.8 W 52 76 28 41 - - 0.0
12/01:33pm 9.2 -3.0 0.6 55 3.9 W 54 72 29 39 - - 0.0
12/01:30pm 8.7 -3.9 0.2 55 3.8 W 56 72 30 39 - - 0.0
12/01:03pm 8.6 -3.3 -0.2 54 3.9 W 52 70 28 38 - - 0.0
12/01:00pm 8.9 -3.4 -0.4 52 4.1 W 54 67 29 36 - - 0.0
12/12:30pm 8.5 -3.6 -1.9 48 4.5 W 52 70 28 38 - - 0.0
12/12:00pm 7.7 -4.8 -2.0 50 4.1 W 54 80 29 43 - - 0.0
12/11:30am 7.5 -5.4 -2.0 51 4.0 W 56 74 30 40 - - 0.0
12/11:00am 7.1 -5.5 -2.3 51 3.9 W 54 72 29 39 - - 0.0
12/10:30am 7.3 -5.8 -2.4 50 4.1 W 57 78 31 42 - - 0.0
12/10:00am 7.1 -5.9 -2.9 49 4.1 W 56 74 30 40 - - 0.0
12/09:30am 7.8 -6.2 -3.4 45 4.6 W 61 82 33 44 - - 0.0
12/09:00am 8.1 -6.4 -4.3 41 5.0 W 63 87 34 47 - - 0.0
12/08:30am 8.4 -5.3 -4.1 41 5.1 WNW 59 96 32 52 - - 0.0
12/08:00am 8.2 -5.9 -3.9 42 4.9 W 61 85 33 46 - - 0.0
12/07:57am 8.5 -4.8 -4.0 41 5.1 WNW 57 85 31 46 - - 0.0
12/07:56am 8.8 -4.5 -4.0 40 5.2 WNW 57 85 31 46 - - 0.0
12/07:30am 7.4 -4.6 -3.7 45 4.5 WNW 50 80 27 43 - - 0.0
12/07:00am 7.8 -4.2 -4.0 43 4.8 W 50 85 27 46 - - 0.0
12/06:30am 8.2 -5.9 -4.2 41 5.0 W 61 82 33 44 - - 0.0
12/06:00am 7.5 -5.7 -4.2 43 4.7 W 56 74 30 40 - - 0.0
12/05:30am 7.6 -6.9 -4.5 42 4.8 W 63 83 34 45 - - 0.0
12/05:03am 7.6 -6.5 -4.2 43 4.8 W 61 80 33 43 - - 0.0
12/05:00am 7.9 -6.6 -4.2 42 4.9 W 63 80 34 43 - - 0.0
12/04:30am 7.8 -7.5 -4.6 41 5.0 W 67 85 36 46 - - 0.0
12/04:00am 8.1 -7.8 -4.7 40 5.1 W 70 96 38 52 - - 0.0
12/03:30am 8.0 -7.7 -4.4 41 5.0 W 69 87 37 47 - - 0.0
12/03:00am 8.5 -7.4 -4.6 39 5.3 W 70 89 38 48 - - 0.0
12/02:30am 8.5 -7.7 -4.3 40 5.2 W 72 91 39 49 - - 0.0
12/02:28am 8.3 -7.9 -4.2 41 5.1 W 72 91 39 49 - - 0.0
12/02:00am 8.4 -9.9 -4.1 41 5.1 W 83 98 45 53 - - 0.0
12/01:49am 8.4 -9.7 -4.1 41 5.1 W 82 100 44 54 - - 0.0
12/01:30am 8.6 -10.0 -3.9 41 5.1 W 85 102 46 55 - - 0.0
12/01:00am 8.5 -9.5 -3.0 44 4.8 W 82 100 44 54 - - 0.0
12/12:47am 8.4 -8.4 -2.8 45 4.7 W 76 95 41 51 - - 0.0
12/12:30am 8.4 -8.4 -2.8 45 4.7 W 76 93 41 50 - - 0.0
12/12:00am 8.2 -9.3 -2.4 47 4.5 W 80 93 43 50 - - 0.0
 
Date/Time
EDT
Temp
°C
App
Temp
°C
Dew
Point
°C
Rel
Hum
%
Delta-T
°C
Wind Press
QNH
hPa
Press
MSL
hPa
Rain since
9am
mm
Dir  Spd
km/h
Gust
km/h
Spd
kts
Gust
kts
11/11:30pm 8.2 -8.9 -2.1 48 4.4 W 78 100 42 54 - - 0.0
11/11:06pm 7.9 -6.7 -1.6 51 4.1 W 65 89 35 48 - - 0.0
11/11:00pm 8.0 -6.9 -1.5 51 4.1 W 67 82 36 44 - - 0.0
11/10:30pm 8.4 -7.5 -2.0 48 4.4 W 72 91 39 49 - - 0.0
11/10:29pm 8.3 -7.6 -1.8 49 4.3 W 72 91 39 49 - - 0.0
11/10:00pm 8.2 -7.0 -1.1 52 4.1 W 69 80 37 43 - - 0.0
11/09:30pm 8.1 -6.0 -0.9 53 3.9 W 63 74 34 40 1014.7 1009.4 0.0
11/09:00pm 8.1 -6.3 -0.6 54 3.8 W 65 74 35 40 1014.9 1009.7 0.0
11/08:30pm 8.0 -6.4 -0.2 56 3.6 W 65 74 35 40 1014.7 1009.4 0.0
11/08:00pm 7.7 -5.4 0.4 60 3.3 W 59 69 32 37 1015.0 1009.8 0.0
11/07:30pm 7.5 -5.0 1.8 67 2.6 W 57 67 31 36 1015.1 1009.9 0.0
11/07:00pm 7.7 -4.2 2.4 69 2.5 W 54 67 29 36 1015.3 1010.0 0.0
11/06:30pm 8.0 -3.2 2.0 66 2.8 W 50 59 27 32 1015.4 1010.2 0.0
11/06:00pm 8.3 -2.6 1.5 62 3.2 W 48 59 26 32 1015.5 1010.3 0.0
11/05:30pm 9.1 -1.1 0.8 56 3.8 WSW 44 59 24 32 1016.4 1011.2 0.0
11/05:00pm 8.9 -0.8 2.7 65 3.0 WSW 43 54 23 29 1016.4 1011.2 0.0
11/04:30pm 9.4 -0.3 2.9 64 3.1 WSW 43 54 23 29 1016.4 1011.2 0.0
11/04:00pm 9.5 -0.4 3.0 64 3.1 WSW 44 57 24 31 1016.4 1011.2 0.0
11/03:30pm 9.1 -0.9 2.2 62 3.3 WSW 44 56 24 30 1016.5 1011.3 0.0
11/03:00pm 8.8 -1.1 1.5 60 3.4 WSW 43 56 23 30 1016.4 1011.2 0.0
11/02:30pm 9.1 -0.9 2.2 62 3.3 W 44 54 24 29 1017.1 1011.9 0.0
11/02:00pm 8.1 -2.0 0.6 59 3.4 W 43 54 23 29 1017.3 1012.2 0.0
11/01:30pm 8.7 -2.0 0.4 56 3.8 WSW 46 57 25 31 1017.7 1012.6 0.0
11/01:00pm 8.5 -2.0 -0.8 52 4.1 W 44 57 24 31 1017.8 1012.7 0.0
11/12:30pm 7.7 -2.9 0.7 61 3.2 W 46 63 25 34 1017.3 1012.2 0.0
11/12:00pm 7.9 -2.9 -0.8 54 3.8 W 46 59 25 32 1018.0 1012.9 0.0
11/11:30am 7.8 -3.4 -3.7 44 4.7 W 46 61 25 33 1018.0 1012.9 0.0
11/11:00am 7.7 -4.0 -4.4 42 4.9 W 48 61 26 33 1017.7 1012.6 0.0
11/10:30am 6.3 -4.7 -5.6 42 4.6 WNW 44 59 24 32 1017.8 1012.7 0.0
11/10:00am 6.4 -4.0 -1.5 57 3.4 WNW 43 54 23 29 1017.8 1012.7 0.0
11/09:30am 5.1 -5.5 0.5 72 2.0 NW 46 57 25 31 1017.3 1012.2 0.0
11/09:00am 4.1 -7.9 1.3 82 1.2 WNW 54 63 29 34 1017.0 1011.8 0.2
11/08:30am 3.2 -7.1 2.8 97 0.2 WNW 46 61 25 33 1017.1 1011.9 0.2
11/08:21am 2.9 -7.4 2.5 97 0.2 WNW 46 65 25 35 1017.3 1012.2 0.2
11/08:00am 2.9 -8.6 2.5 97 0.2 WNW 52 67 28 36 1016.6 1011.4 0.2
11/07:30am 2.8 -7.0 2.4 97 0.2 WNW 43 63 23 34 1016.6 1011.4 0.2
11/07:25am 2.5 -7.5 2.1 97 0.2 WNW 44 63 24 34 1016.7 1011.5 0.2
11/07:00am 2.3 -8.9 1.9 97 0.2 NW 50 61 27 33 1015.6 1010.4 0.2
11/06:30am 2.1 -8.7 1.8 98 0.1 NW 48 59 26 32 1015.7 1010.5 0.2
11/06:00am 1.9 -9.0 1.6 98 0.1 NW 48 61 26 33 1015.4 1010.2 0.2
11/05:30am 2.2 -8.6 1.9 98 0.1 WNW 48 63 26 34 1014.7 1009.4 0.2
11/05:00am 2.1 -8.0 1.8 98 0.1 WNW 44 56 24 30 1015.5 1010.3 0.2
11/04:30am 2.2 -7.7 1.9 98 0.1 WNW 43 57 23 31 1015.5 1010.3 0.2
11/04:00am 2.3 -8.1 2.0 98 0.1 WNW 46 56 25 30 1015.4 1010.2 0.2
11/03:30am 2.2 -7.9 1.8 97 0.2 WNW 44 59 24 32 1015.5 1010.3 0.0
11/03:00am 2.1 -7.4 1.7 97 0.2 WNW 41 48 22 26 1015.7 1010.5 0.0
11/02:30am 2.0 -7.1 1.6 97 0.2 WNW 39 50 21 27 1015.9 1010.7 0.0
11/02:00am 2.0 -6.8 1.6 97 0.2 WNW 37 48 20 26 1016.6 1011.4 0.0
11/01:30am 2.3 -6.8 1.9 97 0.2 WNW 39 48 21 26 1017.0 1011.8 0.0
11/01:00am 2.2 -6.5 1.8 97 0.2 WNW 37 46 20 25 1017.3 1012.2 0.0
11/12:30am 2.3 -7.2 1.9 97 0.2 WNW 41 52 22 28 1017.2 1012.1 0.0
11/12:00am 2.2 -6.5 1.8 97 0.2 WNW 37 46 20 25 1017.3 1012.2 0.0
 
Date/Time
EDT
Temp
°C
App
Temp
°C
Dew
Point
°C
Rel
Hum
%
Delta-T
°C
Wind Press
QNH
hPa
Press
MSL
hPa
Rain since
9am
mm
Dir  Spd
km/h
Gust
km/h
Spd
kts
Gust
kts
10/11:30pm 2.2 -5.6 1.8 97 0.2 WNW 32 46 17 25 1017.6 1012.4 0.0
10/11:00pm 2.4 -4.6 2.0 97 0.2 WNW 28 37 15 20 1017.8 1012.7 0.0
10/10:30pm 2.5 -3.7 2.1 97 0.2 WNW 24 33 13 18 1017.7 1012.6 0.0
10/10:00pm 2.8 -3.4 2.4 97 0.2 WNW 24 37 13 20 1017.8 1012.7 0.0
10/09:30pm 2.8 -3.7 2.4 97 0.2 WNW 26 35 14 19 1017.7 1012.6 0.0
10/09:00pm 2.8 -3.4 2.4 97 0.2 WNW 24 32 13 17 1017.4 1012.3 0.0
10/08:30pm 2.7 -4.2 2.3 97 0.2 WNW 28 35 15 19 1017.2 1012.1 0.0
10/08:00pm 2.6 -3.6 2.2 97 0.2 WNW 24 32 13 17 1017.3 1012.2 0.0
10/07:30pm 2.5 -3.3 2.2 98 0.1 WNW 22 33 12 18 1017.3 1012.2 0.0
10/07:00pm 2.4 -3.4 2.1 98 0.1 WNW 22 30 12 16 1016.8 1011.7 0.0
10/06:30pm 2.4 -3.1 2.1 98 0.1 WNW 20 26 11 14 1016.7 1011.5 0.0
10/06:00pm 2.4 -3.8 2.1 98 0.1 WNW 24 33 13 18 1016.4 1011.2 0.0
10/05:30pm 2.4 -3.1 2.1 98 0.1 WNW 20 26 11 14 1016.2 1011.0 0.0
10/05:00pm 2.3 -3.2 2.0 98 0.1 WNW 20 30 11 16 1016.1 1010.9 0.0
10/04:30pm 2.0 -3.9 1.7 98 0.1 WNW 22 30 12 16 1015.6 1010.4 0.0
10/04:00pm 1.9 -4.0 1.6 98 0.1 WNW 22 30 12 16 1015.6 1010.4 0.0
10/03:30pm 1.9 -3.6 1.6 98 0.1 WNW 20 28 11 15 1015.6 1010.4 0.0
10/03:00pm 1.7 -4.2 1.4 98 0.1 WNW 22 33 12 18 1015.5 1010.3 0.0
10/02:30pm 1.9 -4.0 1.6 98 0.1 WNW 22 35 12 19 1015.5 1010.3 0.0
10/02:00pm 2.0 -3.9 1.7 98 0.1 WNW 22 32 12 17 1015.3 1010.0 0.0
10/01:30pm 1.9 -5.2 1.6 98 0.1 W 28 37 15 20 1015.1 1009.9 0.0
10/01:00pm 1.8 -5.7 1.5 98 0.1 W 30 41 16 22 1014.9 1009.7 0.0
10/12:30pm 2.0 -5.8 1.7 98 0.1 W 32 46 17 25 1014.4 1009.2 0.0
10/12:00pm 1.7 -7.1 1.4 98 0.1 W 37 59 20 32 1014.3 1009.0 0.0
10/11:30am 1.3 -7.6 1.0 98 0.1 W 37 56 20 30 - - 0.0
10/11:19am 1.2 -8.1 0.9 98 0.1 W 39 63 21 34 - - 0.0
10/11:00am 0.9 -7.6 0.6 98 0.1 W 35 46 19 25 - - 0.0
10/10:30am 0.9 -8.8 0.6 98 0.1 WSW 41 59 22 32 - - 0.0
10/10:25am 0.6 -8.7 0.3 98 0.1 WSW 39 57 21 31 - - 0.0
10/10:00am 0.5 -8.1 0.2 98 0.1 WSW 35 50 19 27 - - 0.0
10/09:40am 0.4 -9.0 0.1 98 0.1 WSW 39 57 21 31 - - 0.0
10/09:30am 0.3 -9.1 0.0 98 0.1 WSW 39 54 21 29 - - 0.0
10/09:00am 0.1 -9.3 -0.2 98 0.1 WSW 39 57 21 31 - - 3.6
10/08:30am 0.0 -9.4 -0.3 98 0.1 WSW 39 61 21 33 - - 3.6
10/08:00am -0.1 -10.3 -0.4 98 0.1 WSW 43 70 23 38 - - 3.6
10/07:30am -0.1 -9.9 -0.4 98 0.1 WSW 41 61 22 33 - - 3.6
10/07:04am -0.1 -11.3 -0.4 98 0.1 WSW 48 67 26 36 - - 3.6
10/07:00am -0.1 -10.9 -0.4 98 0.1 WSW 46 63 25 34 - - 3.6
10/06:47am -0.1 -9.9 -0.4 98 0.1 WSW 41 61 22 33 - - 3.6
10/06:34am -0.4 -6.1 -0.7 98 0.1 WSW 19 54 10 29 - - 3.6
10/06:30am -0.4 -4.6 -0.7 98 0.1 WSW 11 17 6 9 - - 3.6

Other formats

Comma delimited format used in spreadsheet applications
http://www.bom.gov.au/fwo/IDN60801/IDN60801.95909.axf

JavaScript Object Notation format (JSON) in row-major order
http://www.bom.gov.au/fwo/IDN60801/IDN60801.95909.json

Data quality

Most of these data are generated automatically and are frequently updated. Quality checks on data are not normally performed. It is possible for incorrect values to appear. Refer to information at About Latest Weather Observations and please check the disclaimer before using these data.